Time;durP1;ratioP1;P1;durP2;ratioP2;P2;SDS_P1;SDS_P2;PMS_P1;PMS_P2;Temp;Humidity;BMP_temperature;BMP_pressure;BME280_temperature;BME280_humidity;BME280_pressure;Samples;Min_cycle;Max_cycle;Signal;HPM_P1;HPM_P2
2022/11/02 00:00:34;;;;;;;10.90;3.42;;;;;;;5.21;55.01;99799.56;6070971;23;20023;-79
2022/11/02 00:03:01;;;;;;;9.05;3.13;;;;;;;4.99;55.10;99778.66;6047786;23;20026;-79
2022/11/02 00:05:27;;;;;;;13.68;4.07;;;;;;;5.22;55.13;99815.09;6071058;23;20026;-82
2022/11/02 00:07:54;;;;;;;6.72;3.80;;;;;;;5.18;54.77;99815.03;6071204;23;20363;-80
2022/11/02 00:10:22;;;;;;;10.02;4.00;;;;;;;5.17;55.19;99819.31;6096407;23;20019;-81
2022/11/02 00:12:49;;;;;;;11.10;3.72;;;;;;;5.13;55.26;99802.06;6097081;23;20030;-81
2022/11/02 00:15:16;;;;;;;10.85;4.30;;;;;;;5.16;55.25;99798.69;6048022;23;20014;-80
2022/11/02 00:17:45;;;;;;;9.20;3.50;;;;;;;5.20;55.00;99808.16;6072281;23;20045;-80
2022/11/02 00:20:14;;;;;;;8.95;3.95;;;;;;;5.11;55.31;99780.53;6071919;23;20022;-80
2022/11/02 00:22:41;;;;;;;10.77;3.90;;;;;;;5.01;55.46;99763.22;6071819;23;20018;-80
2022/11/02 00:25:11;;;;;;;7.35;3.90;;;;;;;5.17;55.16;99785.78;6096964;23;20018;-81
2022/11/02 00:27:39;;;;;;;9.55;4.07;;;;;;;5.22;54.82;99802.19;6075290;23;20046;-81
2022/11/02 00:30:07;;;;;;;8.43;4.50;;;;;;;5.13;54.69;99772.00;6052052;23;20039;-79
2022/11/02 00:32:32;;;;;;;7.93;4.22;;;;;;;5.27;55.72;99791.94;6074472;23;20022;-78
2022/11/02 00:34:58;;;;;;;10.18;3.42;;;;;;;5.27;54.82;99795.38;6072179;23;20064;-81
2022/11/02 00:37:24;;;;;;;8.50;3.65;;;;;;;5.28;55.56;99789.38;6046953;23;20523;-81
2022/11/02 00:39:50;;;;;;;8.75;3.80;;;;;;;5.27;55.53;99791.94;6070745;23;20022;-80
2022/11/02 00:42:16;;;;;;;9.10;3.95;;;;;;;5.21;55.35;99779.81;6071444;23;20022;-83
2022/11/02 00:44:43;;;;;;;9.00;4.07;;;;;;;5.30;55.43;99789.38;6047282;23;20528;-78
2022/11/02 00:47:10;;;;;;;16.50;4.10;;;;;;;5.30;55.11;99783.38;6071154;23;20025;-81
2022/11/02 00:49:36;;;;;;;8.52;4.20;;;;;;;5.08;55.39;99753.00;6097726;23;20018;-79
2022/11/02 00:52:03;;;;;;;16.25;4.47;;;;;;;5.08;55.20;99768.47;6072979;23;20475;-79
2022/11/02 00:54:30;;;;;;;15.98;4.55;;;;;;;4.93;55.61;99750.22;6072396;23;20018;-79
2022/11/02 00:56:56;;;;;;;8.23;3.78;;;;;;;5.14;55.59;99788.31;6102695;23;20028;-80
2022/11/02 00:59:22;;;;;;;8.32;3.90;;;;;;;4.97;55.89;99764.88;6080195;23;20022;-80
2022/11/02 01:01:48;;;;;;;8.38;4.10;;;;;;;5.13;55.83;99787.47;6074055;23;20074;-79
2022/11/02 01:04:19;;;;;;;17.38;4.30;;;;;;;5.09;55.41;99777.94;6070826;23;20018;-79
2022/11/02 01:06:46;;;;;;;8.00;4.63;;;;;;;4.83;56.34;99731.19;6047411;23;20029;-81
2022/11/02 01:09:13;;;;;;;11.98;4.10;;;;;;;5.13;55.83;99787.47;6070510;23;20045;-83
2022/11/02 01:11:40;;;;;;;9.10;4.25;;;;;;;5.03;55.72;99762.38;6046852;23;20026;-81
2022/11/02 01:14:06;;;;;;;10.55;4.28;;;;;;;5.00;56.42;99748.59;6094544;23;20014;-79
2022/11/02 01:16:33;;;;;;;9.48;4.32;;;;;;;5.16;55.70;99775.47;6094729;23;20018;-80
2022/11/02 01:18:59;;;;;;;11.45;4.15;;;;;;;5.12;55.47;99766.78;6070464;23;20112;-78
2022/11/02 01:21:25;;;;;;;12.93;3.85;;;;;;;5.19;56.08;99770.31;6098236;23;20022;-82
2022/11/02 01:23:51;;;;;;;8.45;4.13;;;;;;;5.13;55.78;99765.94;6073206;23;20018;-82
2022/11/02 01:26:17;;;;;;;9.68;4.82;;;;;;;5.08;55.56;99758.16;6051161;23;20456;-79
2022/11/02 01:28:43;;;;;;;17.83;4.30;;;;;;;5.01;55.35;99740.88;6074528;23;20534;-79
2022/11/02 01:31:11;;;;;;;15.40;4.35;;;;;;;5.00;55.44;99741.72;6100080;23;20018;-81
2022/11/02 01:33:48;;;;;;;10.32;4.00;;;;;;;5.15;55.61;99769.41;6072845;23;20475;-81
2022/11/02 01:36:20;;;;;;;8.40;4.13;;;;;;;5.11;55.57;99750.47;6025123;23;20488;-80
2022/11/02 01:38:48;;;;;;;10.18;3.85;;;;;;;5.07;55.42;99740.94;6049381;23;20018;-81
2022/11/02 01:41:15;;;;;;;12.00;4.20;;;;;;;5.10;55.33;99753.00;6074704;23;20049;-79
2022/11/02 01:43:44;;;;;;;11.38;4.07;;;;;;;5.16;55.75;99758.25;6098457;23;20025;-82
2022/11/02 01:46:10;;;;;;;10.10;4.00;;;;;;;5.12;54.72;99766.78;6025151;23;20136;-82
2022/11/02 01:48:39;;;;;;;7.75;3.83;;;;;;;5.01;55.26;99756.34;6074820;23;20019;-81
2022/11/02 01:51:09;;;;;;;11.50;4.20;;;;;;;5.04;55.59;99769.28;6048762;23;20019;-78
2022/11/02 01:53:43;;;;;;;9.75;4.13;;;;;;;4.98;55.22;99764.91;6096505;23;20464;-81
2022/11/02 01:56:14;;;;;;;15.45;4.30;;;;;;;4.91;55.67;99755.34;6048427;23;20028;-81
2022/11/02 01:58:43;;;;;;;12.05;3.53;;;;;;;4.93;55.37;99745.94;6096163;23;20022;-79
2022/11/02 02:01:09;;;;;;;11.52;4.45;;;;;;;4.98;55.61;99757.19;6047533;23;20372;-78
2022/11/02 02:03:36;;;;;;;17.88;4.78;;;;;;;4.99;55.81;99752.88;6095605;23;20038;-77
2022/11/02 02:06:11;;;;;;;15.00;3.58;;;;;;;4.98;55.18;99746.88;6047916;23;20368;-79
2022/11/02 02:08:43;;;;;;;12.88;4.05;;;;;;;5.12;55.56;99765.09;6038713;23;20044;-78
2022/11/02 02:11:26;;;;;;;10.85;4.38;;;;;;;5.09;55.84;99765.06;6081757;23;20026;-78
2022/11/02 02:13:59;;;;;;;9.55;3.85;;;;;;;5.14;55.90;99767.69;6071734;23;20044;-81
2022/11/02 02:17:10;;;;;;;8.23;3.63;;;;;;;5.09;55.82;99754.72;6055887;23;20015;-78
2022/11/02 02:19:53;;;;;;;8.07;3.60;;;;;;;5.20;55.96;99772.94;6095464;23;20022;-79
2022/11/02 02:22:30;;;;;;;11.50;4.03;;;;;;;5.17;55.89;99770.31;6072477;23;20108;-80
2022/11/02 02:25:34;;;;;;;10.13;3.97;;;;;;;5.18;55.61;99769.47;6101180;23;20018;-81
2022/11/02 02:28:09;;;;;;;9.48;4.75;;;;;;;5.11;55.42;99773.69;6040453;23;20022;-78
2022/11/02 02:31:10;;;;;;;12.57;4.40;;;;;;;5.02;55.46;99754.66;6086245;23;20046;-78
2022/11/02 02:33:55;;;;;;;11.00;4.10;;;;;;;5.04;56.74;99747.78;5966964;24;20102;-78
2022/11/02 02:36:37;;;;;;;13.93;4.45;;;;;;;5.19;56.04;99772.88;6063001;23;20050;-79
2022/11/02 02:40:11;;;;;;;9.18;3.95;;;;;;;5.16;56.61;99771.16;6026849;23;20046;-79
2022/11/02 02:42:41;;;;;;;6.75;3.50;;;;;;;5.16;56.27;99771.16;6056264;23;20093;-82
2022/11/02 02:45:19;;;;;;;8.68;3.28;;;;;;;5.06;55.73;99752.13;6048713;23;20018;-80
2022/11/02 02:48:00;;;;;;;7.18;3.63;;;;;;;5.08;55.87;99755.59;6075965;23;20041;-78
2022/11/02 02:50:32;;;;;;;12.52;4.22;;;;;;;5.21;55.75;99768.63;6079607;23;20018;-78
2022/11/02 02:53:02;;;;;;;7.63;3.92;;;;;;;4.98;56.20;99736.53;6054858;23;20029;-82
2022/11/02 02:55:34;;;;;;;17.67;4.65;;;;;;;5.18;56.08;99758.28;6075922;23;20026;-82
2022/11/02 02:58:02;;;;;;;15.50;4.00;;;;;;;5.19;55.86;99760.00;6098161;23;20018;-81
2022/11/02 03:00:32;;;;;;;8.52;3.72;;;;;;;5.03;55.60;99731.44;6097210;23;20086;-78
2022/11/02 03:02:59;;;;;;;9.88;3.72;;;;;;;5.09;55.95;99744.41;6102358;23;20029;-80
2022/11/02 03:05:31;;;;;;;7.95;3.50;;;;;;;5.30;56.14;99775.63;6061852;23;20029;-81
2022/11/02 03:08:04;;;;;;;12.13;3.28;;;;;;;5.31;56.01;99774.75;6081209;23;20025;-81
2022/11/02 03:11:02;;;;;;;15.05;4.18;;;;;;;4.79;55.53;99714.78;6080006;23;20041;-81
2022/11/02 03:13:31;;;;;;;11.38;3.80;;;;;;;5.01;56.42;99781.28;6057189;23;20054;-80
2022/11/02 03:16:04;;;;;;;12.95;4.25;;;;;;;4.81;56.10;99769.84;6046542;23;20029;-78
2022/11/02 03:18:37;;;;;;;9.82;3.40;;;;;;;4.85;56.11;99775.03;6070856;23;20023;-79
2022/11/02 03:21:06;;;;;;;5.78;3.13;;;;;;;4.90;56.91;99753.63;6071476;23;20024;-79
2022/11/02 03:24:25;;;;;;;5.85;3.35;;;;;;;5.09;57.05;99772.78;6047319;23;20104;-79
2022/11/02 03:27:09;;;;;;;6.32;3.42;;;;;;;4.98;56.57;99743.41;6009653;23;20464;-81
2022/11/02 03:29:53;;;;;;;5.50;3.25;;;;;;;5.09;56.16;99747.00;6046939;23;20041;-81
2022/11/02 03:32:33;;;;;;;8.02;3.88;;;;;;;5.01;56.70;99729.69;6047094;23;20022;-82
2022/11/02 03:35:06;;;;;;;9.00;3.28;;;;;;;5.14;56.38;99736.72;6096724;23;20376;-81
2022/11/02 03:37:41;;;;;;;9.60;3.45;;;;;;;5.22;56.97;99765.19;6071025;23;20025;-82
2022/11/02 03:40:12;;;;;;;5.20;3.00;;;;;;;5.23;56.59;99760.06;6047392;23;20014;-80
2022/11/02 03:42:42;;;;;;;8.65;3.63;;;;;;;5.19;56.71;99744.50;6046920;23;20029;-81
2022/11/02 03:45:22;;;;;;;5.18;2.70;;;;;;;4.98;56.74;99715.91;6094890;23;20018;-79
2022/11/02 03:47:54;;;;;;;6.75;3.20;;;;;;;5.13;55.99;99751.34;6000611;23;20028;-81
2022/11/02 03:50:22;;;;;;;;;;;;;;;5.18;56.68;99755.72;6095899;23;20014;-80
2022/11/02 03:53:00;;;;;;;6.32;3.30;;;;;;;5.02;56.09;99736.59;6046872;23;20335;-80
2022/11/02 03:55:35;;;;;;;9.82;3.33;;;;;;;5.21;56.23;99760.88;6047523;23;20360;-81
2022/11/02 03:58:02;;;;;;;7.97;3.97;;;;;;;5.18;55.94;99764.31;6071370;23;20456;-80
2022/11/02 04:00:34;;;;;;;5.88;3.80;;;;;;;4.93;56.52;99730.44;6070843;23;20464;-80
2022/11/02 04:03:05;;;;;;;6.50;3.65;;;;;;;4.88;56.43;99726.09;6047372;23;20022;-79
2022/11/02 04:05:35;;;;;;;5.75;3.20;;;;;;;5.02;56.09;99750.34;6045978;23;20042;-80
2022/11/02 04:08:19;;;;;;;7.65;3.70;;;;;;;5.07;56.74;99753.84;6115016;23;20025;-79
2022/11/02 04:16:24;;;;;;;8.15;3.17;;;;;;;4.94;56.85;99728.75;6053854;23;20026;-81
2022/11/02 04:21:37;;;;;;;5.50;3.50;;;;;;;5.18;57.04;99779.78;6096832;23;20475;-82
2022/11/02 04:26:48;;;;;;;10.32;3.45;;;;;;;5.03;57.31;99748.63;6071976;23;20702;-81
2022/11/02 04:29:16;;;;;;;9.55;3.22;;;;;;;4.36;57.10;99658.41;6050583;23;20015;-82
2022/11/02 04:31:44;;;;;;;7.45;3.40;;;;;;;4.88;57.29;99731.25;6099928;23;20535;-81
2022/11/02 04:34:10;;;;;;;9.73;3.78;;;;;;;4.84;57.13;99743.25;6051569;23;20025;-82
2022/11/02 04:36:37;;;;;;;9.20;3.28;;;;;;;4.65;57.50;99703.44;6076352;23;20018;-82
2022/11/02 04:39:04;;;;;;;9.65;4.00;;;;;;;4.11;57.34;99622.81;6049185;23;20023;-82
2022/11/02 04:41:41;;;;;;;11.60;4.93;;;;;;;5.04;57.34;99761.53;6080221;23;20018;-81
2022/11/02 04:44:16;;;;;;;7.80;3.63;;;;;;;4.62;57.35;99701.69;6061629;23;20503;-80
2022/11/02 04:46:50;;;;;;;8.07;3.25;;;;;;;4.64;57.28;99705.13;6031578;23;20074;-82
2022/11/02 04:49:17;;;;;;;6.57;3.50;;;;;;;4.91;56.93;99755.34;6078856;23;20024;-82
2022/11/02 04:51:44;;;;;;;11.57;4.28;;;;;;;4.58;56.27;99764.34;6062479;23;20101;-81
2022/11/02 04:54:10;;;;;;;12.13;6.30;;;;;;;4.25;57.45;99724.34;6079626;23;20029;-82
2022/11/02 04:56:38;;;;;;;12.25;6.00;;;;;;;4.26;58.11;99726.06;6052511;23;20022;-81
2022/11/02 04:59:06;;;;;;;16.40;7.70;;;;;;;4.40;56.89;99746.91;6076662;23;20356;-83
2022/11/02 05:01:35;;;;;;;17.17;7.07;;;;;;;4.10;57.86;99706.91;6080394;23;20030;-83
2022/11/02 05:04:02;;;;;;;18.05;7.28;;;;;;;4.16;58.46;99688.16;6085146;23;20022;-82
2022/11/02 05:06:31;;;;;;;12.40;6.78;;;;;;;3.90;58.18;99627.66;6082662;23;20018;-82
2022/11/02 05:08:57;;;;;;;12.93;6.57;;;;;;;4.19;56.35;99717.38;6101131;23;20018;-80
2022/11/02 05:11:24;;;;;;;11.82;6.63;;;;;;;3.80;58.58;99659.25;6050983;23;20022;-81
2022/11/02 05:13:52;;;;;;;17.83;9.18;;;;;;;4.30;58.46;99752.75;6049853;23;20029;-83
2022/11/02 05:16:18;;;;;;;13.73;7.53;;;;;;;4.12;58.34;99720.69;6054501;23;20464;-83
2022/11/02 05:18:48;;;;;;;14.70;7.70;;;;;;;4.33;58.26;99755.34;6056674;23;20018;-80
2022/11/02 05:21:16;;;;;;;16.00;8.48;;;;;;;4.43;58.81;99749.53;6051792;23;20022;-81
2022/11/02 05:23:41;;;;;;;13.45;7.03;;;;;;;4.19;57.72;99750.88;6055350;23;20100;-82
2022/11/02 05:26:11;;;;;;;12.70;7.40;;;;;;;3.89;58.44;99767.53;6075174;23;20018;-81
2022/11/02 05:28:41;;;;;;;19.23;8.38;;;;;;;3.79;59.53;99742.47;6050055;23;20029;-80
2022/11/02 05:31:07;;;;;;;19.17;9.40;;;;;;;4.02;59.55;99744.56;6052581;23;20109;-82
2022/11/02 05:33:34;;;;;;;19.13;10.15;;;;;;;4.10;59.03;99771.31;6054050;23;20424;-80
2022/11/02 05:36:08;;;;;;;19.50;8.82;;;;;;;4.13;60.18;99753.34;6085794;23;20008;-83
2022/11/02 05:38:38;;;;;;;15.95;7.82;;;;;;;3.85;59.34;99703.09;6052254;23;20007;-81
2022/11/02 05:41:04;;;;;;;16.17;7.50;;;;;;;3.98;59.96;99724.75;6113445;23;20068;-81
2022/11/02 05:43:34;;;;;;;14.13;7.45;;;;;;;3.87;60.08;99707.41;6116313;23;20064;-86
2022/11/02 05:46:04;;;;;;;14.18;7.35;;;;;;;4.20;59.16;99751.72;6041351;23;20159;-81
2022/11/02 05:48:31;;;;;;;16.35;7.10;;;;;;;4.18;60.04;99736.25;6056639;23;20018;-82
2022/11/02 05:50:59;;;;;;;10.95;6.38;;;;;;;3.80;59.72;99643.81;6108122;23;20015;-83
2022/11/02 05:53:32;;;;;;;13.95;5.97;;;;;;;4.19;59.13;99695.94;6056296;23;20022;-85
2022/11/02 05:56:18;;;;;;;14.27;6.78;;;;;;;3.23;58.69;99563.97;6077882;23;20082;-87
2022/11/02 05:58:47;;;;;;;15.23;7.47;;;;;;;3.63;59.07;99638.38;6053402;23;20364;-84
2022/11/02 06:01:16;;;;;;;14.20;7.95;;;;;;;4.11;59.65;99697.50;6032847;23;20078;-82
2022/11/02 06:03:45;;;;;;;13.50;7.28;;;;;;;3.53;59.69;99591.03;6060358;23;20046;-83
2022/11/02 06:06:14;;;;;;;12.70;8.20;;;;;;;4.26;59.16;99709.75;6032913;23;20105;-82
2022/11/02 06:08:41;;;;;;;16.08;8.48;;;;;;;3.79;59.21;99634.34;6049649;23;20085;-82
2022/11/02 06:11:15;;;;;;;13.52;7.60;;;;;;;4.66;59.73;99755.00;6072606;23;20305;-83
2022/11/02 06:13:42;;;;;;;14.20;7.85;;;;;;;4.13;58.93;99657.19;6026949;23;20018;-83
2022/11/02 06:16:11;;;;;;;11.07;7.22;;;;;;;3.59;58.85;99552.56;6075250;23;20018;-84
2022/11/02 06:18:38;;;;;;;12.45;7.20;;;;;;;4.76;59.13;99722.50;6078711;23;20033;-81
2022/11/02 06:21:04;;;;;;;11.77;6.65;;;;;;;5.02;58.69;99758.06;6057637;23;20018;-82
2022/11/02 06:23:32;;;;;;;14.75;6.90;;;;;;;4.41;58.80;99665.31;6081801;23;20025;-84
2022/11/02 06:26:03;;;;;;;10.32;6.07;;;;;;;4.47;58.69;99683.44;6033442;23;20046;-84
2022/11/02 06:28:30;;;;;;;12.30;7.13;;;;;;;4.78;58.25;99728.53;6065141;23;20357;-84
2022/11/02 06:30:57;;;;;;;11.02;6.72;;;;;;;4.48;58.44;99668.00;6087059;23;20014;-83
2022/11/02 06:33:29;;;;;;;11.70;7.43;;;;;;;4.32;58.42;99625.69;6058393;23;20015;-81
2022/11/02 06:35:55;;;;;;;14.95;7.88;;;;;;;5.21;58.58;99754.03;6083655;23;20022;-83
2022/11/02 06:38:22;;;;;;;15.93;8.93;;;;;;;5.18;57.91;99742.81;6109776;23;20038;-81
2022/11/02 06:41:09;;;;;;;14.90;8.18;;;;;;;5.21;57.66;99742.81;6035503;23;20057;-81
2022/11/02 06:43:40;;;;;;;17.73;8.73;;;;;;;5.26;57.33;99761.81;6063368;23;20018;-82
2022/11/02 06:46:07;;;;;;;15.73;8.63;;;;;;;4.66;57.61;99663.94;6063401;23;20040;-81
2022/11/02 06:48:41;;;;;;;15.68;9.25;;;;;;;5.25;57.61;99765.25;6066842;23;20018;-85
2022/11/02 06:51:16;;;;;;;17.42;9.32;;;;;;;5.06;57.67;99730.63;6062652;23;20014;-85
2022/11/02 06:53:42;;;;;;;15.30;8.52;;;;;;;4.42;57.96;99621.53;6081603;23;20082;-84
2022/11/02 06:56:14;;;;;;;14.55;8.60;;;;;;;4.42;57.91;99630.94;6057515;23;20018;-83
2022/11/02 06:59:28;;;;;;;15.48;9.00;;;;;;;4.43;57.25;99633.56;6056368;23;20014;-83
2022/11/02 07:07:15;;;;;;;16.00;9.27;;;;;;;4.89;57.36;99697.72;5886616;24;20038;-84
2022/11/02 07:10:13;;;;;;;19.42;11.82;;;;;;;4.09;57.18;99542.94;5857746;24;20047;-85
2022/11/02 07:13:33;;;;;;;15.73;9.57;;;;;;;5.16;57.48;99719.56;5841826;24;20040;-84
2022/11/02 07:25:52;;;;;;;18.00;8.95;;;;;;;4.63;56.85;99662.19;5722158;25;20020;-82
2022/11/02 07:34:18;;;;;;;21.13;12.27;;;;;;;4.29;57.39;99617.91;5710614;25;20095;-83
2022/11/02 07:38:05;;;;;;;17.00;9.18;;;;;;;4.98;56.88;99709.88;5688911;25;20020;-84
2022/11/02 07:41:50;;;;;;;20.20;9.45;;;;;;;4.45;56.75;99637.03;5809016;24;20038;-86
2022/11/02 07:45:35;;;;;;;15.90;8.68;;;;;;;5.19;56.62;99754.84;5760018;24;20036;-84
2022/11/02 07:48:27;;;;;;;17.55;8.55;;;;;;;4.32;56.70;99614.50;5725921;24;20110;-85
2022/11/02 07:51:50;;;;;;;12.98;8.50;;;;;;;5.38;56.58;99789.47;6011962;23;20018;-83
2022/11/02 07:55:43;;;;;;;17.63;9.20;;;;;;;3.89;56.71;99571.00;6102976;23;20087;-83
2022/11/02 07:58:41;;;;;;;15.40;7.47;;;;;;;5.35;56.53;99804.91;5916112;24;20024;-85
2022/11/02 08:02:12;;;;;;;15.55;8.20;;;;;;;4.26;57.19;99597.25;5933977;24;20021;-83
2022/11/02 08:09:17;;;;;;;15.52;7.28;;;;;;;4.36;56.37;99585.38;5912259;24;20507;-82
2022/11/02 08:12:31;;;;;;;15.07;8.52;;;;;;;4.97;56.07;99716.75;5953467;23;20026;-83
2022/11/02 08:16:12;;;;;;;16.35;9.02;;;;;;;5.51;56.59;99787.91;6076043;23;20045;-83
2022/11/02 08:19:05;;;;;;;16.33;9.02;;;;;;;5.50;56.17;99783.59;5959030;23;20078;-83
2022/11/02 08:29:33;;;;;;;15.77;8.88;;;;;;;5.33;56.18;99693.97;6072582;23;20071;-81
2022/11/02 08:31:59;;;;;;;23.15;13.00;;;;;;;5.88;55.82;99778.84;6051225;23;20155;-80
2022/11/02 08:34:28;;;;;;;22.48;11.18;;;;;;;5.78;55.94;99768.41;6054187;23;20019;-81
2022/11/02 08:37:23;;;;;;;17.13;9.25;;;;;;;4.61;54.81;99590.84;6106590;23;20046;-81
2022/11/02 08:40:23;;;;;;;19.48;10.68;;;;;;;4.88;55.59;99666.78;6059722;23;20018;-81
2022/11/02 08:43:36;;;;;;;;;;;;;;;;;;;;;
2022/11/02 08:47:00;;;;;;;15.25;9.35;;;;;;;5.55;56.11;99779.34;6054538;23;20026;-81
2022/11/02 08:49:38;;;;;;;19.67;10.25;;;;;;;5.46;55.66;99741.41;6009530;23;20026;-82
2022/11/02 08:56:12;;;;;;;16.90;9.27;;;;;;;5.36;55.14;99704.31;6049167;23;20022;-85
2022/11/02 08:58:39;;;;;;;18.85;9.52;;;;;;;4.94;55.42;99617.88;6077439;23;20464;-82
2022/11/02 09:01:13;;;;;;;17.90;8.98;;;;;;;4.66;55.58;99581.44;6076300;23;20018;-84
2022/11/02 09:03:42;;;;;;;17.20;8.90;;;;;;;5.46;55.23;99682.03;6079472;23;20025;-84
2022/11/02 09:11:11;;;;;;;13.43;8.15;;;;;;;6.06;54.67;99764.41;5932094;24;20065;-82
2022/11/02 09:14:09;;;;;;;14.90;8.65;;;;;;;4.87;55.07;99591.13;5996261;23;20047;-82
2022/11/02 09:16:59;;;;;;;15.90;9.27;;;;;;;5.58;54.61;99717.44;6042756;23;20076;-82
2022/11/02 09:23:59;;;;;;;17.17;10.25;;;;;;;5.72;54.80;99727.91;5997748;23;20124;-82
2022/11/02 09:27:23;;;;;;;16.65;9.18;;;;;;;5.05;54.37;99613.69;5967172;24;20027;-81
2022/11/02 09:29:49;;;;;;;17.23;8.65;;;;;;;5.61;54.66;99699.41;5969206;24;20063;-80
2022/11/02 09:32:15;;;;;;;16.70;9.23;;;;;;;5.98;54.63;99776.34;6052313;23;20106;-78
2022/11/02 09:34:42;;;;;;;15.23;8.65;;;;;;;5.32;54.50;99660.38;6044191;23;20003;-81
2022/11/02 09:37:10;;;;;;;16.85;9.00;;;;;;;5.29;54.80;99658.66;6042916;23;20158;-82
2022/11/02 09:39:47;;;;;;;16.08;8.68;;;;;;;6.17;54.39;99772.25;6017994;23;20030;-81
2022/11/02 09:42:26;;;;;;;;;;;;;;;6.20;54.15;99759.34;6062676;23;20018;-82
2022/11/02 09:45:21;;;;;;;13.77;8.13;;;;;;;4.97;54.06;99561.13;6037798;23;19956;-82
2022/11/02 09:48:43;;;;;;;13.82;7.80;;;;;;;5.48;54.09;99645.91;6006800;23;20074;-82
2022/11/02 09:51:30;;;;;;;14.18;7.30;;;;;;;5.11;53.96;99593.13;5991100;23;20018;-82
2022/11/02 09:54:39;;;;;;;12.82;7.70;;;;;;;6.24;53.95;99749.91;6000402;23;20341;-81
2022/11/02 09:57:23;;;;;;;13.32;7.75;;;;;;;5.20;53.71;99542.44;5963034;23;20397;-82
2022/11/02 09:59:53;;;;;;;13.35;7.60;;;;;;;5.97;53.60;99677.34;6021686;23;20018;-80
2022/11/02 10:03:07;;;;;;;13.18;7.72;;;;;;;6.44;53.66;99752.66;6019718;23;20019;-81
2022/11/02 10:05:40;;;;;;;15.00;7.97;;;;;;;6.48;53.50;99747.50;6020440;23;20449;-83
2022/11/02 10:08:59;;;;;;;15.85;7.82;;;;;;;6.51;53.13;99744.06;6026823;23;20018;-80
2022/11/02 10:11:49;;;;;;;;;;;;;;;;;;;;;
2022/11/02 10:15:23;;;;;;;18.98;8.02;;;;;;;6.00;53.22;99666.19;6058512;23;20110;-82
2022/11/02 10:21:11;;;;;;;16.55;8.35;;;;;;;6.17;52.79;99697.31;6047025;23;20026;-83
2022/11/02 10:26:47;;;;;;;17.88;8.93;;;;;;;6.37;53.09;99696.59;6075765;23;20385;-80
2022/11/02 10:33:02;;;;;;;17.48;7.80;;;;;;;6.01;51.74;99658.47;6049411;23;20429;-81
2022/11/02 10:35:46;;;;;;;16.08;8.65;;;;;;;6.67;52.80;99751.94;6028328;23;20018;-80
2022/11/02 10:38:33;;;;;;;16.08;8.27;;;;;;;6.73;52.46;99754.56;6073834;23;20252;-83
2022/11/02 10:41:28;;;;;;;14.45;7.68;;;;;;;6.77;52.61;99758.88;6025456;23;20519;-81
2022/11/02 10:44:03;;;;;;;12.57;8.07;;;;;;;6.41;51.86;99695.75;6046748;23;20022;-80
2022/11/02 10:47:06;;;;;;;14.88;8.93;;;;;;;6.47;52.13;99701.81;6097849;23;20057;-81
2022/11/02 10:50:17;;;;;;;12.35;7.93;;;;;;;6.90;52.20;99754.66;6082634;23;20014;-80
2022/11/02 10:52:45;;;;;;;13.07;7.35;;;;;;;6.91;52.16;99746.03;6073129;23;20025;-82
2022/11/02 10:55:25;;;;;;;10.93;7.13;;;;;;;6.93;51.66;99754.66;6026585;23;20437;-80
2022/11/02 10:57:58;;;;;;;10.70;6.85;;;;;;;6.75;51.71;99725.28;6050275;23;20025;-82
2022/11/02 11:00:29;;;;;;;13.93;7.30;;;;;;;6.99;51.26;99756.41;6048821;23;20349;-82
2022/11/02 11:03:09;;;;;;;12.82;7.70;;;;;;;6.51;51.31;99687.19;6049090;23;20018;-81
2022/11/02 11:05:54;;;;;;;14.73;7.22;;;;;;;6.72;51.15;99711.47;6077575;23;20026;-81
2022/11/02 11:08:28;;;;;;;14.48;7.55;;;;;;;6.87;51.54;99752.94;6074716;23;20456;-81
2022/11/02 11:11:20;;;;;;;12.88;7.50;;;;;;;6.70;50.49;99742.47;6049239;23;20014;-80
2022/11/02 11:13:56;;;;;;;;;;;;;;;6.69;51.25;99748.50;6073531;23;20077;-79
2022/11/02 11:16:53;;;;;;;12.43;6.05;;;;;;;6.76;51.59;99750.28;6025493;23;19952;-80
2022/11/02 11:19:28;;;;;;;11.00;6.25;;;;;;;6.40;50.71;99683.69;6072806;23;20102;-78
2022/11/02 11:21:57;;;;;;;14.88;6.75;;;;;;;5.62;50.81;99559.16;6073922;23;20018;-82
2022/11/02 11:24:32;;;;;;;20.30;8.13;;;;;;;6.67;51.17;99746.78;6072828;23;20022;-82
2022/11/02 11:30:35;;;;;;;12.63;6.55;;;;;;;6.07;50.79;99655.03;6082144;23;20400;-83
2022/11/02 11:33:21;;;;;;;9.48;6.75;;;;;;;6.80;50.66;99760.66;6074113;23;20030;-81
2022/11/02 11:35:50;;;;;;;10.07;6.13;;;;;;;6.84;50.13;99752.91;6049946;23;20092;-80
2022/11/02 11:38:20;;;;;;;14.70;6.43;;;;;;;5.72;50.31;99550.59;6025297;23;20022;-83
2022/11/02 11:41:14;;;;;;;10.57;6.03;;;;;;;6.08;50.17;99630.94;6052660;23;20101;-78
2022/11/02 11:43:54;;;;;;;12.70;6.68;;;;;;;5.99;50.34;99631.72;6047407;23;20025;-80
2022/11/02 11:46:21;;;;;;;12.95;6.30;;;;;;;6.76;50.19;99742.53;6072009;23;20460;-79
2022/11/02 11:49:02;;;;;;;11.60;6.70;;;;;;;6.76;50.19;99777.84;6025974;23;20018;-81
2022/11/02 11:51:48;;;;;;;10.07;5.90;;;;;;;6.30;50.05;99682.78;6072560;23;20090;-82
2022/11/02 11:54:52;;;;;;;14.40;6.10;;;;;;;5.87;49.46;99616.13;6098227;23;20018;-80
2022/11/02 11:57:55;;;;;;;11.93;6.13;;;;;;;6.30;49.65;99683.63;6035787;23;20014;-82
2022/11/02 12:00:27;;;;;;;11.98;6.78;;;;;;;6.69;50.00;99753.66;5977915;23;20076;-81
2022/11/02 12:03:11;;;;;;;10.98;6.32;;;;;;;6.64;49.59;99747.59;6051771;23;20047;-78
2022/11/02 12:06:30;;;;;;;12.10;7.05;;;;;;;6.48;49.93;99754.41;6076213;23;20018;-83
2022/11/02 12:09:09;;;;;;;15.50;7.25;;;;;;;5.55;49.82;99611.56;6051077;23;20014;-80
2022/11/02 12:12:07;;;;;;;10.75;6.32;;;;;;;6.40;49.55;99756.91;6026882;23;20018;-81
2022/11/02 12:15:11;;;;;;;13.43;7.40;;;;;;;6.31;50.25;99752.53;6026870;23;20022;-80
2022/11/02 12:25:22;;;;;;;11.30;6.38;;;;;;;6.23;49.77;99751.63;5988879;23;20026;-81
2022/11/02 12:28:05;;;;;;;16.63;9.25;;;;;;;5.31;49.38;99607.03;6104888;23;20019;-80
2022/11/02 12:31:17;;;;;;;15.32;7.72;;;;;;;6.14;50.02;99756.72;6079077;23;20018;-80
2022/11/02 12:33:53;;;;;;;16.63;7.72;;;;;;;6.12;50.06;99755.84;6077218;23;20029;-79
2022/11/02 12:37:12;;;;;;;15.73;6.85;;;;;;;5.85;49.65;99737.50;6104395;23;20360;-82
2022/11/02 12:40:16;;;;;;;11.35;5.93;;;;;;;5.92;49.38;99761.66;6043644;23;20507;-80
2022/11/02 12:43:06;;;;;;;11.25;6.57;;;;;;;5.94;50.52;99772.88;6100303;23;20065;-79
2022/11/02 12:45:51;;;;;;;12.38;6.50;;;;;;;5.94;50.23;99778.03;6039370;23;20018;-79
2022/11/02 12:48:46;;;;;;;11.10;5.93;;;;;;;5.78;49.98;99769.25;6101915;23;20018;-80
2022/11/02 12:51:36;;;;;;;15.82;7.28;;;;;;;5.01;50.26;99640.28;6050720;23;20692;-80
2022/11/02 12:54:26;;;;;;;13.13;6.95;;;;;;;5.80;50.24;99769.31;6052586;23;20101;-81
2022/11/02 12:57:00;;;;;;;10.57;6.60;;;;;;;5.86;49.96;99805.50;6024274;23;20018;-78
2022/11/02 12:59:35;;;;;;;12.38;6.03;;;;;;;5.85;50.35;99799.47;6022998;23;20113;-80
2022/11/02 13:02:10;;;;;;;13.50;6.07;;;;;;;5.80;50.28;99797.72;6074269;23;20018;-81
2022/11/02 13:04:55;;;;;;;12.73;5.22;;;;;;;5.35;50.21;99743.00;6100440;23;20052;-81
2022/11/02 13:07:45;;;;;;;9.68;5.32;;;;;;;4.45;50.40;99637.03;6072167;23;20029;-80
2022/11/02 13:10:29;;;;;;;10.88;5.70;;;;;;;4.61;50.52;99657.84;6072688;23;20094;-79
2022/11/02 13:13:00;;;;;;;10.50;5.37;;;;;;;4.30;50.31;99595.63;6100423;23;20046;-80
2022/11/02 13:15:38;;;;;;;8.77;5.10;;;;;;;4.82;50.39;99696.78;6052018;23;20027;-81
2022/11/02 13:18:32;;;;;;;9.63;5.43;;;;;;;5.04;50.67;99768.44;6079259;23;20027;-80
2022/11/02 13:21:03;;;;;;;9.23;5.90;;;;;;;4.78;50.86;99733.69;6080679;23;20073;-79
2022/11/02 13:23:39;;;;;;;9.57;5.10;;;;;;;4.95;50.70;99757.13;6027197;23;20018;-78
2022/11/02 13:26:46;;;;;;;11.90;6.03;;;;;;;5.20;51.63;99792.69;6072886;23;20026;-78
2022/11/02 13:29:23;;;;;;;12.35;5.80;;;;;;;4.50;50.84;99692.09;6100408;23;20022;-80
2022/11/02 13:31:56;;;;;;;12.30;6.50;;;;;;;5.05;50.85;99780.47;6073790;23;20073;-80
2022/11/02 13:34:48;;;;;;;11.23;6.10;;;;;;;4.83;51.14;99763.00;6097698;23;20105;-79
2022/11/02 13:37:23;;;;;;;10.82;5.00;;;;;;;4.59;51.43;99740.31;6082608;23;20368;-81
2022/11/02 13:40:03;;;;;;;11.93;5.30;;;;;;;4.85;51.51;99795.66;6059348;23;20048;-80
2022/11/02 13:43:13;;;;;;;10.13;5.60;;;;;;;4.78;51.01;99803.31;6035185;23;20006;-80
2022/11/02 13:45:58;;;;;;;12.70;5.63;;;;;;;4.73;51.46;99804.09;6105803;23;20022;-82
2022/11/02 13:48:27;;;;;;;10.85;4.93;;;;;;;4.73;51.47;99801.50;6034045;23;20078;-82
2022/11/02 13:51:02;;;;;;;9.43;5.03;;;;;;;3.73;51.60;99683.16;6055737;23;20021;-81
2022/11/02 13:53:38;;;;;;;9.05;5.13;;;;;;;4.56;51.47;99814.13;6036647;23;20029;-79